createdAt,value
2019-05-03T00:03:29.062Z,77.98
2019-05-03T00:09:33.635Z,77.76
2019-05-03T00:15:38.377Z,78.43
2019-05-03T00:21:43.015Z,78.71
2019-05-03T00:27:47.600Z,78.01
2019-05-03T00:33:53.897Z,79.58
2019-05-03T00:40:06.186Z,80.45
2019-05-03T00:46:12.500Z,79.67
2019-05-03T00:52:17.053Z,80.41
2019-05-03T00:58:22.525Z,79.82
2019-05-03T01:04:27.382Z,79.89
2019-05-03T01:10:33.106Z,80.04
2019-05-03T01:16:37.927Z,80.39
2019-05-03T01:22:42.582Z,81.10
2019-05-03T01:28:47.227Z,80.81
2019-05-03T01:34:52.412Z,81.83
2019-05-03T01:40:57.131Z,81.57
2019-05-03T01:47:03.337Z,82.84
2019-05-03T01:53:09.572Z,82.62
2019-05-03T01:59:14.155Z,82.92
2019-05-03T02:05:36.916Z,83.53
2019-05-03T02:11:42.130Z,83.42
2019-05-03T02:17:47.008Z,84.50
2019-05-03T02:23:52.057Z,84.81
2019-05-03T02:29:56.823Z,84.43
2019-05-03T02:36:03.760Z,83.83
2019-05-03T02:42:11.387Z,83.80
2019-05-03T02:48:25.588Z,80.39
2019-05-03T02:54:30.577Z,79.99
2019-05-03T03:00:56.047Z,78.95
2019-05-03T03:07:01.698Z,78.10
2019-05-03T03:13:09.164Z,79.08
2019-05-03T03:19:16.935Z,79.42
2019-05-03T03:25:26.219Z,79.69
2019-05-03T03:32:00.977Z,80.84
2019-05-03T03:38:05.849Z,81.16
2019-05-03T03:44:11.925Z,80.07
2019-05-03T03:50:16.629Z,80.29
2019-05-03T03:56:21.971Z,79.13
2019-05-03T04:02:26.733Z,79.85
2019-05-03T04:08:31.535Z,79.85
2019-05-03T04:14:50.014Z,80.39
2019-05-03T04:20:55.960Z,80.54
2019-05-03T04:27:18.527Z,80.20
2019-05-03T04:33:15.998Z,79.37
2019-05-03T04:39:20.451Z,80.37
2019-05-03T04:45:25.839Z,77.92
2019-05-03T04:51:30.498Z,75.17
2019-05-03T04:57:42.222Z,73.92
2019-05-03T05:03:41.319Z,71.41
2019-05-03T05:09:45.918Z,69.32
2019-05-03T05:15:50.466Z,70.57
2019-05-03T05:21:56.725Z,70.32
2019-05-03T05:28:04.718Z,69.68
2019-05-03T05:34:09.567Z,69.68
2019-05-03T05:40:15.636Z,69.09
2019-05-03T05:46:21.934Z,70.58
2019-05-03T05:52:26.501Z,69.58
2019-05-03T05:58:34.671Z,70.26
2019-05-03T06:04:39.019Z,70.00
2019-05-03T06:11:00.532Z,69.20
2019-05-03T06:17:18.961Z,70.45
2019-05-03T06:23:25.171Z,66.81
2019-05-03T06:29:29.718Z,65.68
2019-05-03T06:35:34.615Z,65.80
2019-05-03T06:41:39.425Z,63.42
2019-05-03T06:47:45.985Z,64.13
2019-05-03T06:53:50.719Z,62.48
2019-05-03T07:00:15.358Z,61.17
2019-05-03T07:06:33.368Z,59.71
2019-05-03T07:12:29.315Z,56.29
2019-05-03T07:18:35.202Z,56.98
2019-05-03T07:24:40.896Z,55.64
2019-05-03T07:30:45.732Z,54.19
2019-05-03T07:36:50.283Z,53.64
2019-05-03T07:42:55.679Z,51.11
2019-05-03T07:49:00.317Z,51.97
2019-05-03T07:55:06.626Z,53.31
2019-05-03T08:01:14.837Z,53.47
2019-05-03T08:07:22.406Z,55.11
2019-05-03T08:13:25.482Z,54.79
2019-05-03T08:19:30.204Z,55.10
2019-05-03T08:25:35.474Z,52.83
2019-05-03T08:31:45.459Z,48.50
2019-05-03T08:37:51.785Z,46.52
2019-05-03T08:43:56.411Z,45.84
2019-05-03T08:50:00.993Z,46.25
2019-05-03T08:56:08.926Z,43.70
2019-05-03T09:02:16.414Z,47.40
2019-05-03T09:08:19.895Z,47.70
2019-05-03T09:14:24.686Z,48.44
2019-05-03T09:20:32.338Z,46.53
2019-05-03T09:26:37.078Z,46.92
2019-05-03T09:32:41.636Z,43.61
2019-05-03T09:38:46.339Z,47.14
2019-05-03T09:44:52.558Z,45.36
2019-05-03T09:50:57.297Z,42.85
2019-05-03T09:57:01.853Z,45.13
2019-05-03T10:03:06.647Z,46.67
2019-05-03T10:09:11.277Z,45.74
2019-05-03T10:15:37.064Z,47.07
2019-05-03T10:21:44.888Z,46.96
2019-05-03T10:27:49.524Z,46.15
2019-05-03T10:33:55.735Z,47.19
2019-05-03T10:40:05.149Z,47.04
2019-05-03T10:46:08.754Z,45.30
2019-05-03T10:52:15.034Z,40.52
2019-05-03T10:58:20.189Z,43.86
2019-05-03T11:04:25.515Z,43.95
2019-05-03T11:10:30.157Z,44.18
2019-05-03T11:16:35.291Z,42.11
2019-05-03T11:22:40.009Z,40.19
2019-05-03T11:28:44.909Z,42.83
2019-05-03T11:34:51.268Z,44.19
2019-05-03T11:40:56.119Z,43.33
2019-05-03T11:47:00.868Z,39.32
2019-05-03T11:53:05.613Z,42.45
2019-05-03T11:59:10.161Z,45.07
2019-05-03T12:05:24.481Z,45.96
2019-05-03T12:11:30.898Z,46.09
2019-05-03T12:17:50.404Z,43.23
2019-05-03T12:23:45.855Z,40.50
2019-05-03T12:29:52.336Z,38.45
2019-05-03T12:35:56.361Z,40.20
2019-05-03T12:42:01.004Z,41.55
2019-05-03T12:48:05.933Z,44.02
2019-05-03T12:54:10.566Z,43.00
2019-05-03T13:00:15.623Z,44.54
2019-05-03T13:06:20.364Z,45.25
2019-05-03T13:12:26.576Z,45.68
2019-05-03T13:18:31.127Z,42.84
2019-05-03T13:24:35.747Z,43.38
2019-05-03T13:30:40.300Z,44.35
2019-05-03T13:36:45.646Z,44.96
2019-05-03T13:42:57.661Z,44.85
2019-05-03T13:48:56.651Z,44.98
2019-05-03T13:55:01.244Z,45.71
2019-05-03T14:01:06.065Z,43.21
2019-05-03T14:07:10.777Z,41.50
2019-05-03T14:13:15.354Z,43.80
2019-05-03T14:19:30.213Z,42.41
2019-05-03T14:25:35.182Z,43.28
2019-05-03T14:31:39.840Z,44.08
2019-05-03T14:37:45.859Z,43.91
2019-05-03T14:43:50.804Z,44.93
2019-05-03T14:49:55.521Z,46.26
2019-05-03T14:56:07.847Z,46.27
2019-05-03T15:02:39.494Z,45.18
2019-05-03T15:08:32.267Z,42.87
2019-05-03T15:14:36.900Z,44.74
2019-05-03T15:20:41.515Z,45.36
2019-05-03T15:26:46.079Z,46.44
2019-05-03T15:32:59.491Z,46.13
2019-05-03T15:38:56.921Z,40.39
2019-05-03T15:45:05.088Z,39.67
2019-05-03T15:51:09.429Z,44.86
2019-05-03T15:57:14.452Z,44.01
2019-05-03T16:03:19.205Z,44.95
2019-05-03T16:09:24.618Z,43.79
2019-05-03T16:15:29.294Z,42.83
2019-05-03T16:21:34.126Z,43.32
2019-05-03T16:27:41.925Z,44.12
2019-05-03T16:33:46.550Z,42.87
2019-05-03T16:39:51.161Z,44.09
2019-05-03T16:45:55.716Z,42.71
2019-05-03T16:52:00.280Z,43.07
2019-05-03T16:58:05.074Z,42.26
2019-05-03T17:04:25.143Z,44.29
2019-05-03T17:10:34.807Z,45.48
2019-05-03T17:16:39.572Z,44.98
2019-05-03T17:22:45.027Z,45.42
2019-05-03T17:28:49.832Z,45.82
2019-05-03T17:34:54.863Z,46.27
2019-05-03T17:41:14.867Z,47.10
2019-05-03T17:47:19.595Z,46.03
2019-05-03T17:53:35.816Z,46.16
2019-05-03T17:59:45.259Z,46.69
2019-05-03T18:05:54.339Z,47.41
2019-05-03T18:12:04.662Z,47.96
2019-05-03T18:18:09.363Z,47.65
2019-05-03T18:24:15.375Z,47.91
2019-05-03T18:30:20.788Z,48.92
2019-05-03T18:36:25.441Z,49.96
2019-05-03T18:42:35.277Z,50.73
2019-05-03T18:48:39.932Z,51.50
2019-05-03T18:54:44.579Z,50.86
2019-05-03T19:00:49.199Z,51.12
2019-05-03T19:07:03.775Z,51.59
2019-05-03T19:13:00.037Z,52.30
2019-05-03T19:19:06.166Z,51.68
2019-05-03T19:25:10.867Z,51.68
2019-05-03T19:31:15.500Z,51.91
2019-05-03T19:37:20.040Z,52.07
2019-05-03T19:43:27.039Z,53.05
2019-05-03T19:49:30.958Z,52.42
2019-05-03T19:55:35.649Z,52.72
2019-05-03T20:01:41.848Z,53.37
2019-05-03T20:07:57.129Z,53.72
2019-05-03T20:14:01.543Z,53.21
2019-05-03T20:20:07.780Z,54.11
2019-05-03T20:26:12.324Z,54.48
2019-05-03T20:32:17.345Z,55.12
2019-05-03T20:38:21.888Z,57.16
2019-05-03T20:44:28.076Z,56.57
2019-05-03T20:50:32.622Z,58.05
2019-05-03T20:56:37.186Z,57.80
2019-05-03T21:02:51.558Z,58.52
2019-05-03T21:08:53.028Z,59.17
2019-05-03T21:14:55.645Z,58.33
2019-05-03T21:21:04.660Z,58.18
2019-05-03T21:27:09.223Z,58.24
2019-05-03T21:33:15.648Z,58.49
2019-05-03T21:39:20.015Z,58.23
2019-05-03T21:45:26.201Z,58.81
2019-05-03T21:51:30.818Z,60.00
2019-05-03T21:57:35.350Z,59.05
2019-05-03T22:03:40.130Z,59.55
2019-05-03T22:09:45.315Z,59.62
2019-05-03T22:15:51.702Z,59.26
2019-05-03T22:22:00.349Z,59.17
2019-05-03T22:28:07.107Z,60.24
2019-05-03T22:34:11.246Z,60.31
2019-05-03T22:40:15.854Z,61.63
2019-05-03T22:46:20.394Z,64.32
2019-05-03T22:52:25.777Z,66.17
2019-05-03T22:58:30.496Z,65.41
2019-05-03T23:04:35.580Z,66.00
2019-05-03T23:10:40.355Z,67.01
2019-05-03T23:16:45.129Z,67.15
2019-05-03T23:22:49.893Z,67.84
2019-05-03T23:28:55.138Z,68.04
2019-05-03T23:34:59.865Z,70.54
2019-05-03T23:41:04.931Z,73.63
2019-05-03T23:47:11.248Z,77.19
2019-05-03T23:53:15.788Z,80.18
2019-05-03T23:59:20.319Z,81.87
